createdAt,value
2023-04-28T00:01:21.081Z,74.90
2023-04-28T00:06:24.108Z,75.20
2023-04-28T00:11:27.031Z,75.30
2023-04-28T00:16:29.991Z,75.60
2023-04-28T00:21:33.058Z,75.60
2023-04-28T00:26:36.117Z,76.00
2023-04-28T00:31:39.130Z,76.70
2023-04-28T00:36:42.827Z,77.00
2023-04-28T00:41:45.930Z,78.10
2023-04-28T00:46:48.751Z,78.60
2023-04-28T00:51:51.881Z,79.20
2023-04-28T00:56:55.228Z,78.60
2023-04-28T01:01:59.925Z,79.00
2023-04-28T01:07:03.156Z,78.10
2023-04-28T01:12:06.638Z,78.30
2023-04-28T01:17:10.880Z,78.70
2023-04-28T01:22:16.254Z,79.00
2023-04-28T01:27:19.197Z,79.30
2023-04-28T01:32:22.401Z,79.40
2023-04-28T01:37:25.529Z,79.70
2023-04-28T01:42:28.531Z,79.70
2023-04-28T01:47:32.122Z,80.40
2023-04-28T01:52:35.187Z,80.20
2023-04-28T01:57:37.997Z,80.70
2023-04-28T02:02:41.493Z,81.20
2023-04-28T02:07:44.605Z,81.70
2023-04-28T02:12:47.624Z,82.50
2023-04-28T02:17:50.597Z,82.80
2023-04-28T02:22:53.537Z,83.30
2023-04-28T02:27:57.410Z,83.30
2023-04-28T02:33:00.574Z,83.30
2023-04-28T02:38:03.785Z,83.50
2023-04-28T02:43:06.754Z,83.90
2023-04-28T02:48:09.786Z,84.40
2023-04-28T02:53:13.226Z,84.70
2023-04-28T02:58:18.099Z,84.70
2023-04-28T03:03:21.558Z,85.80
2023-04-28T03:08:26.068Z,85.80
2023-04-28T03:13:30.135Z,86.90
2023-04-28T03:18:33.632Z,87.30
2023-04-28T03:23:37.005Z,87.50
2023-04-28T03:28:39.831Z,87.30
2023-04-28T03:33:45.705Z,87.10
2023-04-28T03:38:48.671Z,87.60
2023-04-28T03:43:53.379Z,87.60
2023-04-28T03:48:56.312Z,87.80
2023-04-28T03:53:59.419Z,87.80
2023-04-28T03:59:02.553Z,88.10
2023-04-28T04:04:05.769Z,89.80
2023-04-28T04:09:09.106Z,89.60
2023-04-28T04:14:12.036Z,89.40
2023-04-28T04:19:15.064Z,89.00
2023-04-28T04:24:18.223Z,89.10
2023-04-28T04:29:21.702Z,89.10
2023-04-28T04:34:24.614Z,88.60
2023-04-28T04:39:27.663Z,89.20
2023-04-28T04:44:30.673Z,89.10
2023-04-28T04:49:33.773Z,89.90
2023-04-28T04:54:36.743Z,88.90
2023-04-28T04:59:39.778Z,89.10
2023-04-28T05:04:42.816Z,90.00
2023-04-28T05:09:45.747Z,89.80
2023-04-28T05:14:48.740Z,90.20
2023-04-28T05:19:52.164Z,89.90
2023-04-28T05:24:55.128Z,90.10
2023-04-28T05:30:00.011Z,90.20
2023-04-28T05:35:03.320Z,90.30
2023-04-28T05:40:08.013Z,90.70
2023-04-28T05:45:11.896Z,90.40
2023-04-28T05:50:14.885Z,89.80
2023-04-28T05:55:18.387Z,88.50
2023-04-28T06:00:22.297Z,86.60
2023-04-28T06:05:26.942Z,85.70
2023-04-28T06:10:30.117Z,84.60
2023-04-28T06:15:33.984Z,83.50
2023-04-28T06:20:37.214Z,82.70
2023-04-28T06:25:40.440Z,82.20
2023-04-28T06:30:43.429Z,80.40
2023-04-28T06:35:46.487Z,80.10
2023-04-28T06:40:49.476Z,79.50
2023-04-28T06:45:52.479Z,79.10
2023-04-28T06:50:55.569Z,77.40
2023-04-28T06:55:58.548Z,76.10
2023-04-28T07:01:04.032Z,75.30
2023-04-28T07:06:07.322Z,74.00
2023-04-28T07:11:10.389Z,73.50
2023-04-28T07:16:13.482Z,72.50
2023-04-28T07:21:17.859Z,70.80
2023-04-28T07:26:21.314Z,70.00
2023-04-28T07:31:26.254Z,68.50
2023-04-28T07:36:29.261Z,67.30
2023-04-28T07:41:39.712Z,67.30
2023-04-28T07:46:42.972Z,66.90
2023-04-28T07:51:46.701Z,65.20
2023-04-28T07:56:53.504Z,63.40
2023-04-28T08:01:56.827Z,62.80
2023-04-28T08:07:00.967Z,62.50
2023-04-28T08:12:04.179Z,63.00
2023-04-28T08:17:06.914Z,62.60
2023-04-28T08:22:09.826Z,62.50
2023-04-28T08:27:13.038Z,61.20
2023-04-28T08:32:16.358Z,60.60
2023-04-28T08:37:19.708Z,58.90
2023-04-28T08:42:22.802Z,59.20
2023-04-28T08:47:36.935Z,58.40
2023-04-28T08:52:42.696Z,56.40
2023-04-28T08:57:49.515Z,56.50
2023-04-28T09:02:52.941Z,55.90
2023-04-28T09:07:56.430Z,54.80
2023-04-28T09:12:59.444Z,52.70
2023-04-28T09:18:05.158Z,52.80
2023-04-28T09:23:22.395Z,51.00
2023-04-28T09:28:25.899Z,50.50
2023-04-28T09:33:28.944Z,49.00
2023-04-28T09:38:32.045Z,48.80
2023-04-28T09:43:36.101Z,49.10
2023-04-28T09:48:39.323Z,48.50
2023-04-28T09:53:42.413Z,47.90
2023-04-28T09:58:48.158Z,48.00
2023-04-28T10:03:53.329Z,47.50
2023-04-28T10:08:58.847Z,47.40
2023-04-28T10:14:02.509Z,47.10
2023-04-28T10:19:05.854Z,46.00
2023-04-28T10:24:18.375Z,46.00
2023-04-28T10:29:27.951Z,46.60
2023-04-28T10:34:31.509Z,47.20
2023-04-28T10:39:35.175Z,46.70
2023-04-28T10:44:43.999Z,46.20
2023-04-28T10:49:58.733Z,45.60
2023-04-28T10:55:36.817Z,46.30
2023-04-28T11:00:41.054Z,45.10
2023-04-28T11:06:29.029Z,45.60
2023-04-28T11:11:36.425Z,45.50
2023-04-28T11:17:03.710Z,45.40
2023-04-28T11:22:14.099Z,45.50
2023-04-28T11:27:28.077Z,45.30
2023-04-28T11:32:34.078Z,45.10
2023-04-28T11:37:37.127Z,45.20
2023-04-28T11:42:49.067Z,45.70
2023-04-28T11:47:52.282Z,45.40
2023-04-28T11:52:55.220Z,46.10
2023-04-28T11:58:27.940Z,46.30
2023-04-28T12:03:31.066Z,46.40
2023-04-28T12:08:34.275Z,45.80
2023-04-28T12:13:38.550Z,45.80
2023-04-28T12:19:02.664Z,45.80
2023-04-28T12:24:20.840Z,46.40
2023-04-28T12:29:41.075Z,45.50
2023-04-28T12:34:46.938Z,46.40
2023-04-28T12:39:50.103Z,46.80
2023-04-28T12:44:53.090Z,47.70
2023-04-28T12:49:56.545Z,47.10
2023-04-28T12:55:00.473Z,48.00
2023-04-28T13:00:04.304Z,47.00
2023-04-28T13:05:10.105Z,46.80
2023-04-28T13:10:13.820Z,46.40
2023-04-28T13:15:17.132Z,45.80
2023-04-28T13:20:20.201Z,46.90
2023-04-28T13:25:23.491Z,45.90
2023-04-28T13:30:27.837Z,46.20
2023-04-28T13:35:30.822Z,46.00
2023-04-28T13:40:35.013Z,45.80
2023-04-28T13:45:37.996Z,46.20
2023-04-28T13:50:41.024Z,46.10
2023-04-28T13:55:44.413Z,46.00
2023-04-28T14:00:47.409Z,45.90
2023-04-28T14:05:56.358Z,46.30
2023-04-28T14:10:59.428Z,46.20
2023-04-28T14:16:02.674Z,45.80
2023-04-28T14:21:08.429Z,46.10
2023-04-28T14:26:11.777Z,45.50
2023-04-28T14:31:14.796Z,45.40
2023-04-28T14:36:17.807Z,45.90
2023-04-28T14:41:21.182Z,46.40
2023-04-28T14:46:24.378Z,46.70
2023-04-28T14:51:27.938Z,47.00
2023-04-28T14:56:32.685Z,47.50
2023-04-28T15:01:36.833Z,48.00
2023-04-28T15:06:40.196Z,48.20
2023-04-28T15:11:43.288Z,48.60
2023-04-28T15:16:47.957Z,48.90
2023-04-28T15:21:51.028Z,49.10
2023-04-28T15:26:54.377Z,49.20
2023-04-28T15:31:58.087Z,49.40
2023-04-28T15:37:01.745Z,49.50
2023-04-28T15:42:05.252Z,49.90
2023-04-28T15:47:09.040Z,50.30
2023-04-28T15:52:13.030Z,50.70
2023-04-28T15:57:16.091Z,50.90
2023-04-28T16:02:21.456Z,51.20
2023-04-28T16:07:24.576Z,51.40
2023-04-28T16:12:27.405Z,51.50
2023-04-28T16:17:31.127Z,51.70
2023-04-28T16:22:35.486Z,51.90
2023-04-28T16:27:40.636Z,52.20
2023-04-28T16:32:43.821Z,52.60
2023-04-28T16:37:47.142Z,52.90
2023-04-28T16:42:50.051Z,52.90
2023-04-28T16:47:53.113Z,53.10
2023-04-28T16:52:56.321Z,53.30
2023-04-28T16:58:00.015Z,53.90
2023-04-28T17:03:03.154Z,54.30
2023-04-28T17:08:06.396Z,54.50
2023-04-28T17:13:10.223Z,54.80
2023-04-28T17:18:13.222Z,55.00
2023-04-28T17:23:16.196Z,55.20
2023-04-28T17:28:19.126Z,55.40
2023-04-28T17:33:22.655Z,55.80
2023-04-28T17:38:25.732Z,56.10
2023-04-28T17:43:29.512Z,56.60
2023-04-28T17:48:32.816Z,57.00
2023-04-28T17:53:37.503Z,57.20
2023-04-28T17:58:40.837Z,57.40
2023-04-28T18:03:43.683Z,57.70
2023-04-28T18:08:47.249Z,57.80
2023-04-28T18:13:50.515Z,58.20
2023-04-28T18:18:53.644Z,59.10
2023-04-28T18:23:56.529Z,59.80
2023-04-28T18:28:59.836Z,61.10
2023-04-28T18:34:04.080Z,63.10
2023-04-28T18:39:09.034Z,64.70
2023-04-28T18:44:14.057Z,66.00
2023-04-28T18:49:17.124Z,67.10
2023-04-28T18:54:20.216Z,67.40
2023-04-28T18:59:23.507Z,68.40
2023-04-28T19:04:26.778Z,69.60
2023-04-28T19:09:29.783Z,70.70
2023-04-28T19:14:33.987Z,71.20
2023-04-28T19:19:37.481Z,72.10
2023-04-28T19:24:40.549Z,72.70
2023-04-28T19:29:43.616Z,73.60
2023-04-28T19:34:48.306Z,74.50
2023-04-28T19:39:52.026Z,75.60
2023-04-28T19:44:58.062Z,76.30
2023-04-28T19:50:01.496Z,77.00
2023-04-28T19:55:04.845Z,78.00
2023-04-28T20:00:08.928Z,78.70
2023-04-28T20:05:12.800Z,79.90
2023-04-28T20:10:15.776Z,81.60
2023-04-28T20:15:19.421Z,82.10
2023-04-28T20:20:23.511Z,83.00
2023-04-28T20:25:27.850Z,83.90
2023-04-28T20:30:30.886Z,84.70
2023-04-28T20:35:34.316Z,86.20
2023-04-28T20:40:37.587Z,86.90
2023-04-28T20:45:42.325Z,88.10
2023-04-28T20:50:45.901Z,88.70
2023-04-28T20:55:50.253Z,89.50
2023-04-28T21:00:53.435Z,90.00
2023-04-28T21:05:56.490Z,90.30
2023-04-28T21:10:59.463Z,90.60
2023-04-28T21:16:02.208Z,91.30
2023-04-28T21:21:05.264Z,91.90
2023-04-28T21:26:08.692Z,92.70
2023-04-28T21:31:11.646Z,93.20
2023-04-28T21:36:15.776Z,93.60
2023-04-28T21:41:18.830Z,94.20
2023-04-28T21:46:21.925Z,94.70
2023-04-28T21:51:25.262Z,94.90
2023-04-28T21:56:28.953Z,96.00
2023-04-28T22:01:32.465Z,96.20
2023-04-28T22:06:36.172Z,97.00
2023-04-28T22:11:39.197Z,97.30
2023-04-28T22:16:42.389Z,97.70
2023-04-28T22:21:45.426Z,98.60
2023-04-28T22:26:48.407Z,99.20
2023-04-28T22:31:52.518Z,99.50
2023-04-28T22:36:55.506Z,99.90
2023-04-28T22:41:58.578Z,99.90
2023-04-28T22:47:02.497Z,99.90
2023-04-28T22:52:23.382Z,99.90
2023-04-28T22:57:26.542Z,99.90
2023-04-28T23:02:29.923Z,99.90
2023-04-28T23:07:32.819Z,99.90
2023-04-28T23:12:35.829Z,99.90
2023-04-28T23:17:38.924Z,99.90
2023-04-28T23:22:41.915Z,99.90
2023-04-28T23:27:44.938Z,99.90
2023-04-28T23:33:05.899Z,99.90
2023-04-28T23:38:27.154Z,99.90
2023-04-28T23:43:30.620Z,99.90
2023-04-28T23:48:51.679Z,99.90
2023-04-28T23:53:54.857Z,99.90
2023-04-28T23:58:57.892Z,99.90
